Terminal Aerodrome Forecast
Issued by NWS

Home | Current Version | Previous Version | Text Only | Print | Product List | Glossary On
Versions: 1 2 3 4 5 6 7 8 9 10 11 12 13 14 15
000
FTUS46 KPDT 031728
TAFBDN
TAF
KBDN 031728Z 0318/0418 26006KT P6SM -SHRA FEW060 SCT100 BKN150
     FM032100 34007KT P6SM VCSH SCT070 OVC100
     FM040500 30008KT P6SM SCT090 BKN180
     FM040900 24005KT P6SM SKC=

USA.gov is the U.S. government's official web portal to all federal, state and local government web resources and services.